• Join FlightAware (Why Join?)
  • Login
  • US Flag 
05:55AM EST


 

Airport Tracker/Info


-or-


 

Live Flight TrackerFlight Track Log ✈ UAL33 ✈ 21-May-2013 ✈ KORD - KIAH

Flight Track Log - Related Links

Times and Time Zones

All times are in EDT time to prevent confusion due to time zone crossing. See the UAL33 flight status page for this flight to view local times or setup timezone preferences in your user account.

Time Position Orientation Groundspeed Altitude Reporting Facility
EDT Latitude Longitude Course Direction KTS MPH feet Rate Location/Type
09:53PM 41.9667 -87.9333 203° Southwest 174 200 2,300  Level Chicago TRACON
09:54PM 41.9167 -87.9833 217° Southwest 225 259 4,300 2,040 Climbing Chicago TRACON
09:56PM 41.5391 -88.1077 197° South  Level FlightAware Approximate
09:56PM 41.8214 -87.9989 187° South 265 305 7,500  Level Chicago Center
09:57PM 41.4273 -88.1520 194° South  Level FlightAware Approximate
09:57PM 41.7406 -88.0306 196° South 261 300 12,100  Level Chicago Center
09:58PM 41.3178 -88.2041 203° Southwest  Level FlightAware Approximate
09:58PM 41.6817 -88.0886 216° Southwest 264 304 14,900  Level Chicago Center
09:59PM 41.6061 -88.1136 194° South 283 326 16,200 1,260 Climbing Chicago Center
10:00PM 41.5236 -88.1497 198° South 324 373 17,600 1,980 Climbing Chicago Center
10:01PM 41.4325 -88.1886 198° South 357 411 20,300 2,760 Climbing Chicago Center
10:02PM 41.3147 -88.2411 199° South 382 440 23,300 2,700 Climbing Chicago Center
10:03PM 41.2131 -88.2853 198° South 388 447 26,000 2,760 Climbing Chicago Center
10:04PM 41.1117 -88.3286 198° South 388 447 29,000 2,700 Climbing Chicago Center
10:05PM 41.0119 -88.3717 198° South 383 441 31,600 1,980 Climbing Chicago Center
10:06PM 40.9114 -88.4142 198° South 382 440 33,100 1,560 Climbing Chicago Center
10:07PM 40.7828 -88.4572 194° South 400 460 34,900 1,020 Climbing Chicago Center
10:08PM 40.6708 -88.4747 187° South 408 470 35,200 660 Climbing Chicago Center
10:09PM 40.5567 -88.4919 187° South 414 476 36,300 1,200 Climbing Chicago Center
10:10PM 40.4306 -88.5122 187° South 429 494 37,700 1,320 Climbing Chicago Center
10:11PM 40.3508 -88.6144 224° Southwest 413 475 39,100 1,080 Climbing Chicago Center
10:12PM 40.2808 -88.7333 232° Southwest 410 472 40,000 420 Climbing Chicago Center
10:13PM 40.2111 -88.8497 232° Southwest 406 467 40,000  Level Chicago Center
10:14PM 40.1408 -88.9686 232° Southwest 410 472 40,000  Level Chicago Center
10:15PM 40.0697 -89.0858 232° Southwest 411 473 40,000  Level Chicago Center
10:16PM 40.0128 -89.1814 232° Southwest 411 473 40,000  Level Kansas City Center
10:17PM 39.9425 -89.2969 232° Southwest 408 470 40,000  Level Kansas City Center
10:18PM 39.8728 -89.4128 232° Southwest 406 467 40,000  Level Kansas City Center
10:19PM 39.8031 -89.5275 232° Southwest 404 465 40,000  Level Kansas City Center
10:20PM 39.7333 -89.6428 232° Southwest 405 466 40,000  Level Kansas City Center
10:21PM 39.6592 -89.7639 232° Southwest 404 465 40,000  Level Kansas City Center
10:22PM 39.5894 -89.8797 232° Southwest 406 467 40,000  Level Kansas City Center
10:23PM 39.5186 -89.9953 232° Southwest 410 472 40,000  Level Kansas City Center
10:24PM 39.4325 -90.1353 231° Southwest 415 478 40,000  Level Kansas City Center
10:25PM 39.3606 -90.2536 232° Southwest 419 482 40,000  Level Kansas City Center
10:26PM 39.2878 -90.3714 231° Southwest 422 486 40,000  Level Kansas City Center
10:27PM 39.2147 -90.4903 232° Southwest 425 489 40,000  Level Kansas City Center
10:28PM 39.1417 -90.6072 231° Southwest 423 487 40,000  Level Kansas City Center
10:29PM 39.0703 -90.7200 231° Southwest 416 479 40,000  Level Kansas City Center
10:30PM 38.9831 -90.8594 231° Southwest 420 483 40,000  Level Kansas City Center
10:31PM 38.9097 -90.9747 231° Southwest 421 484 40,000  Level Kansas City Center
10:32PM 38.8369 -91.0894 231° Southwest 419 482 40,000  Level Kansas City Center
10:33PM 38.7642 -91.2050 231° Southwest 420 483 40,000  Level Kansas City Center
10:34PM 38.6906 -91.3200 231° Southwest 420 483 40,000  Level Kansas City Center
10:35PM 38.6092 -91.4475 231° Southwest 417 480 40,000  Level Kansas City Center
10:36PM 38.5344 -91.5619 230° Southwest 418 481 40,000  Level Kansas City Center
10:37PM 38.4600 -91.6786 231° Southwest 421 484 40,000  Level Kansas City Center
10:38PM 38.3839 -91.7928 230° Southwest 420 483 40,000  Level Kansas City Center
10:39PM 38.3108 -91.9050 230° Southwest 413 475 40,000  Level Kansas City Center
10:40PM 38.2372 -92.0164 230° Southwest 411 473 40,000  Level Kansas City Center
10:42PM 38.1592 -92.1353 230° Southwest 413 475 40,000  Level Kansas City Center
10:43PM 38.0861 -92.2456 230° Southwest 412 474 40,000  Level Kansas City Center
10:44PM 38.0106 -92.3622 231° Southwest 428 493 40,000  Level Kansas City Center
10:45PM 37.9358 -92.4725 229° Southwest 423 487 40,000  Level Kansas City Center
10:46PM 37.8306 -92.5847 220° Southwest 419 482 40,000  Level Kansas City Center
10:47PM 37.7378 -92.6711 216° Southwest 415 478 40,000  Level Kansas City Center
10:48PM 37.6383 -92.7647 217° Southwest 417 480 40,000  Level Kansas City Center
10:49PM 37.5461 -92.8497 216° Southwest 413 475 40,000  Level Kansas City Center
10:50PM 37.4544 -92.9361 217° Southwest 411 473 40,000  Level Kansas City Center
10:51PM 37.3625 -93.0222 217° Southwest 412 474 40,000  Level Kansas City Center
10:52PM 37.2717 -93.1069 217° Southwest 408 470 40,000  Level Kansas City Center
10:53PM 37.1786 -93.1894 215° Southwest 409 471 40,000  Level Kansas City Center
10:54PM 37.0864 -93.2733 216° Southwest 409 471 40,000  Level Kansas City Center
10:55PM 36.9967 -93.3586 217° Southwest 406 467 40,000  Level Kansas City Center
10:56PM 36.9053 -93.4414 216° Southwest 405 466 40,000  Level Kansas City Center
10:57PM 36.8000 -93.5392 217° Southwest 408 470 40,000  Level Kansas City Center
10:58PM 36.7119 -93.6203 216° Southwest 401 461 40,000  Level Kansas City Center
10:59PM 36.6222 -93.7019 216° Southwest 400 460 40,000  Level Kansas City Center
11:00PM 36.5417 -93.7736 216° Southwest 393 452 40,000  Level Kansas City Center
11:01PM 36.4361 -93.8708 217° Southwest 392 451 40,000  Level Kansas City Center
11:02PM 36.3486 -93.9503 216° Southwest 390 449 40,000  Level Kansas City Center
11:02PM 36.3317 -93.9636 212° Southwest 400 460 40,000  Level Memphis Center
11:03PM 36.2375 -94.0494 216° Southwest 400 460 40,000  Level Memphis Center
11:04PM 36.1497 -94.1253 215° Southwest 395 455 40,000  Level Memphis Center
11:05PM 36.0597 -94.2083 217° Southwest 400 460 40,000  Level Memphis Center
11:06PM 35.9717 -94.2836 215° Southwest 400 460 40,000  Level Memphis Center
11:07PM 35.8881 -94.3592 216° Southwest 394 453 40,000  Level Memphis Center
11:08PM 35.8022 -94.4369 216° Southwest 394 453 40,000  Level Memphis Center
11:09PM 35.7183 -94.5144 217° Southwest 394 453 40,000  Level Memphis Center
11:10PM 35.6300 -94.5919 216° Southwest 389 448 40,000  Level Memphis Center
11:12PM 35.4592 -94.7428 216° Southwest 380 437 40,000  Level Fort Worth Center
11:13PM 35.3711 -94.8194 215° Southwest 380 437 40,000  Level Fort Worth Center
11:14PM 35.2850 -94.8958 216° Southwest 380 437 40,000  Level Fort Worth Center
11:15PM 35.2011 -94.9694 216° Southwest 380 437 40,000  Level Fort Worth Center
11:16PM 35.1128 -95.0456 215° Southwest 380 437 40,000  Level Fort Worth Center
11:17PM 35.0267 -95.1217 216° Southwest 380 437 40,000  Level Fort Worth Center
11:18PM 34.9403 -95.1947 215° Southwest 380 437 40,000  Level Fort Worth Center
11:19PM 34.8539 -95.2703 216° Southwest 380 437 40,000  Level Fort Worth Center
11:20PM 34.7675 -95.3433 215° Southwest 380 437 40,000  Level Fort Worth Center
11:21PM 34.6894 -95.4083 214° Southwest 380 437 40,000  Level Fort Worth Center
11:22PM 34.5947 -95.4914 216° Southwest 385 443 40,000  Level Fort Worth Center
11:23PM 34.5083 -95.5639 215° Southwest 385 443 40,000  Level Fort Worth Center
11:24PM 34.4194 -95.6336 213° Southwest 400 460 40,000  Level Fort Worth Center
11:25PM 34.3328 -95.7083 215° Southwest 394 453 40,000  Level Fort Worth Center
11:26PM 34.2442 -95.7806 214° Southwest 394 453 40,000  Level Fort Worth Center
11:27PM 34.1553 -95.8550 215° Southwest 394 453 40,000  Level Fort Worth Center
11:28PM 34.0728 -95.9292 217° Southwest 394 453 40,000  Level Fort Worth Center
11:34PM 33.5617 -96.3540 217° Southwest 399 459 40,000  Level FlightAware ADS-B
11:35PM 33.4480 -96.4480 215° Southwest 400 460 40,000  Level FlightAware ADS-B
11:35PM 33.4006 -96.4869 214° Southwest 404 465 40,000  Level FlightAware ADS-B
11:36PM 33.3605 -96.5201 215° Southwest 406 467 40,000  Level FlightAware ADS-B
11:36PM 33.3044 -96.5616 212° Southwest 407 468 40,000  Level FlightAware ADS-B
11:37PM 33.2763 -96.5778 206° Southwest 406 467 40,000  Level FlightAware ADS-B
11:37PM 33.2243 -96.6059 204° Southwest 406 467 40,000  Level FlightAware ADS-B
11:38PM 33.1730 -96.6337 204° Southwest 406 467 40,000  Level FlightAware ADS-B
11:38PM 33.1201 -96.6622 204° Southwest 407 468 40,000  Level FlightAware ADS-B
11:39PM 33.0351 -96.7080 204° Southwest 408 470 40,000  Level FlightAware ADS-B
11:40PM 32.9552 -96.7508 204° Southwest 408 470 40,000  Level FlightAware ADS-B
11:40PM 32.9036 -96.7787 204° Southwest 410 472 40,000  Level FlightAware ADS-B
11:41PM 32.8474 -96.8087 204° Southwest 412 474 40,000 -300 Level FlightAware ADS-B
11:42PM 32.7517 -96.8599 204° Southwest 416 479 39,600 -720 Descending FlightAware ADS-B
11:42PM 32.6974 -96.8890 204° Southwest 414 476 39,000 -1,140 Descending FlightAware ADS-B
11:43PM 32.5928 -96.9182 193° South 425 489 38,000 -720 Descending FlightAware ADS-B
11:44PM 32.5333 -96.9253 186° South 427 491 38,000  Level FlightAware ADS-B
11:44PM 32.4709 -96.9328 186° South 425 489 38,000  Level FlightAware ADS-B
11:45PM 32.3855 -96.9427 186° South 422 486 38,000  Level FlightAware ADS-B
11:46PM 32.3231 -96.9499 186° South 423 487 38,000  Level FlightAware ADS-B
11:47PM 32.1833 -96.9660 185° South 424 488 38,000  Level FlightAware ADS-B
11:47PM 32.1242 -96.9728 186° South 425 489 38,000  Level FlightAware ADS-B
11:49PM 31.8790 -97.0010 186° South 424 488 38,000  Level FlightAware ADS-B
11:52PM 31.5829 -97.0348 186° South 422 486 38,000  Level FlightAware ADS-B
11:52PM 31.5240 -97.0415 186° South 423 487 38,000  Level FlightAware ADS-B
11:53PM 31.4647 -97.0483 186° South 423 487 38,000  Level FlightAware ADS-B
11:54PM 31.3461 -97.0617 186° South 423 487 38,000  Level FlightAware ADS-B
11:55PM 31.2279 -97.0751 185° South 421 484 38,000  Level FlightAware ADS-B
11:56PM 31.0504 -97.0952 186° South 421 484 38,000  Level FlightAware ADS-B
11:57PM 30.9326 -97.1084 186° South 420 483 38,000  Level FlightAware ADS-B
11:58PM 30.8145 -97.1217 186° South 423 487 38,000 -720 Level FlightAware ADS-B
11:59PM 30.6953 -97.1350 185° South 443 510 36,600 -900 Descending FlightAware ADS-B
12:02AM 30.3789 -97.1702 185° South 453 521 35,000 -420 Descending FlightAware ADS-B
12:04AM 30.1872 -97.1915 186° South 457 526 34,900 -480 Descending FlightAware ADS-B
12:05AM 30.0587 -97.2057 185° South 451 519 33,800 -1,380 Descending FlightAware ADS-B
12:05AM 29.9865 -97.2135 185° South 446 513 32,700 -1,980 Descending FlightAware ADS-B
12:06AM 29.9244 -97.2205 186° South 441 507 31,700 -2,100 Descending FlightAware ADS-B
12:06AM 29.8633 -97.2273 186° South 438 504 30,600 -2,400 Descending FlightAware ADS-B
12:06AM 29.8237 -97.2318 186° South 442 509 29,700 -2,940 Descending FlightAware ADS-B
12:07AM 29.8067 -97.2327 183° South 447 514 29,300 -3,000 Descending FlightAware ADS-B
12:07AM 29.7824 -97.2310 177° South 455 524 28,700 -2,880 Descending FlightAware ADS-B
12:07AM 29.7606 -97.2257 168° South 461 531 28,200 -3,000 Descending FlightAware ADS-B
12:07AM 29.7407 -97.2195 165° South 468 539 27,700 -3,300 Descending FlightAware ADS-B
12:07AM 29.7181 -97.2087 157° South 475 547 27,100 -3,240 Descending FlightAware ADS-B
12:07AM 29.7150 -97.2068 152° Southeast 475 547 27,000 -3,480 Descending FlightAware ADS-B
12:07AM 29.7044 -97.2005 153° Southeast 478 550 26,700 -3,600 Descending FlightAware ADS-B
12:08AM 29.6961 -97.1945 148° Southeast 480 552 26,400 -3,540 Descending FlightAware ADS-B
12:08AM 29.6829 -97.1839 145° Southeast 482 555 26,000 -3,000 Descending FlightAware ADS-B
12:08AM 29.6807 -97.1822 146° Southeast 482 555 26,000 -3,000 Level FlightAware ADS-B
12:08AM 29.6720 -97.1742 141° Southeast 484 557 25,700 -2,760 Descending FlightAware ADS-B
12:08AM 29.6616 -97.1630 137° Southeast 484 557 25,500 -2,340 Descending FlightAware ADS-B
12:08AM 29.6517 -97.1501 131° Southeast 483 556 25,200 -2,340 Descending FlightAware ADS-B
12:08AM 29.6436 -97.1370 125° Southeast 483 556 25,000 -2,040 Descending FlightAware ADS-B
12:08AM 29.6371 -97.1244 121° Southeast 481 554 24,800 -1,800 Descending FlightAware ADS-B
12:08AM 29.6327 -97.1144 117° Southeast 480 552 24,700 -2,220 Descending FlightAware ADS-B
12:08AM 29.6273 -97.0983 111° Southeast 479 551 24,400 -2,340 Descending FlightAware ADS-B
12:08AM 29.6239 -97.0841 105° East 478 550 24,200 -1,860 Descending FlightAware ADS-B
12:09AM 29.6214 -97.0672 100° East 477 549 24,000 -2,040 Descending FlightAware ADS-B
12:09AM 29.6190 -97.0384 95° East 472 543 23,600 -1,980 Descending FlightAware ADS-B
12:09AM 29.6148 -96.9907 96° East 465 535 23,000 -1,920 Descending FlightAware ADS-B
12:09AM 29.6097 -96.9314 96° East 472 543 22,200 -2,040 Descending FlightAware ADS-B
12:10AM 29.6086 -96.9174 95° East 455 524 22,000 -1,860 Descending FlightAware ADS-B
12:10AM 29.6028 -96.8458 95° East 444 511 21,100 -1,800 Descending FlightAware ADS-B
12:11AM 29.5971 -96.7753 95° East 436 502 20,200 -1,800 Descending FlightAware ADS-B
12:11AM 29.5914 -96.7061 95° East 427 491 19,300 -1,800 Descending FlightAware ADS-B
12:12AM 29.5858 -96.6386 95° East 420 483 18,400 -1,740 Descending FlightAware ADS-B
12:12AM 29.5804 -96.5733 95° East 410 472 17,600 -1,620 Descending FlightAware ADS-B
12:13AM 29.5747 -96.5077 96° East 404 465 16,800 -1,740 Descending FlightAware ADS-B
12:13AM 29.5692 -96.4444 96° East 396 456 15,900 -1,740 Descending FlightAware ADS-B
12:14AM 29.5639 -96.3822 96° East 391 450 15,100 -1,620 Descending FlightAware ADS-B
12:14AM 29.5585 -96.3208 96° East 385 443 14,300 -1,680 Descending FlightAware ADS-B
12:15AM 29.5531 -96.2594 96° East 381 438 13,400 -1,800 Descending FlightAware ADS-B
12:15AM 29.5491 -96.2107 95° East 376 433 12,700 -1,500 Descending FlightAware ADS-B
12:15AM 29.5488 -96.2015 92° East 374 430 12,700 -960 Level FlightAware ADS-B
12:15AM 29.5494 -96.1861 87° East 373 429 12,500 -1,440 Descending FlightAware ADS-B
12:15AM 29.5520 -96.1677 81° East 372 428 12,300 -1,140 Descending FlightAware ADS-B
12:15AM 29.5552 -96.1545 74° East 370 426 12,200 -780 Descending FlightAware ADS-B
12:16AM 29.5609 -96.1385 68° East 371 427 12,100 -420 Descending FlightAware ADS-B
12:16AM 29.5668 -96.1256 62° Northeast 371 427 12,100 -180 Level FlightAware ADS-B
12:16AM 29.5928 -96.0743 60° Northeast 367 422 12,000 -900 Descending FlightAware ADS-B
12:17AM 29.6185 -96.0230 60° Northeast 364 419 11,200 -1,200 Descending FlightAware ADS-B
12:17AM 29.6431 -95.9741 60° Northeast 346 398 10,800 -720 Descending FlightAware ADS-B
12:18AM 29.6667 -95.9269 60° Northeast 331 381 10,500 -600 Descending FlightAware ADS-B
12:18AM 29.6893 -95.8819 60° Northeast 318 366 10,200 -420 Descending FlightAware ADS-B
12:19AM 29.7096 -95.8417 60° Northeast 314 361 10,100 -300 Descending FlightAware ADS-B
12:19AM 29.7235 -95.8139 60° Northeast 314 361 10,000 -360 Descending FlightAware ADS-B
12:19AM 29.7343 -95.7922 60° Northeast 314 361 9,900 -420 Descending FlightAware ADS-B
12:20AM 29.7459 -95.7691 60° Northeast 313 360 9,800 -480 Descending FlightAware ADS-B
12:20AM 29.7797 -95.7017 60° Northeast 310 357 9,400 -540 Descending FlightAware ADS-B
12:21AM 29.8033 -95.6544 60° Northeast 308 354 9,100 -480 Descending FlightAware ADS-B
12:21AM 29.8159 -95.6291 60° Northeast 308 354 9,000 -480 Descending FlightAware ADS-B
12:22AM 29.8404 -95.5801 60° Northeast 306 352 8,700 -480 Descending FlightAware ADS-B
12:22AM 29.8521 -95.5566 60° Northeast 305 351 8,600 -480 Descending FlightAware ADS-B
12:23AM 29.8897 -95.4787 67° East 303 349 8,200 -540 Descending FlightAware ADS-B
12:23AM 29.8953 -95.4516 80° East 300 345 8,000 -600 Descending FlightAware ADS-B
12:23AM 29.8959 -95.4443 85° East 299 344 8,000 -300 Level FlightAware ADS-B
12:24AM 29.8961 -95.3858 89° East 295 339 7,800 -300 Descending FlightAware ADS-B
12:25AM 29.8966 -95.2753 90° East 279 321 7,500 -180 Descending FlightAware ADS-B
12:26AM 29.8967 -95.2276 90° East 258 297 7,500 -1,320 Level FlightAware ADS-B
12:27AM 29.8969 -95.1298 90° East 245 282 5,200 -1,980 Descending FlightAware ADS-B
12:27AM 29.8976 -95.1196 83° East 245 282 4,900 -2,220 Descending FlightAware ADS-B
12:27AM 29.8987 -95.1146 76° East 244 281 4,800 -2,040 Descending FlightAware ADS-B
12:27AM 29.9005 -95.1096 67° East 244 281 4,600 -2,220 Descending FlightAware ADS-B
12:27AM 29.9043 -95.1028 55° Northeast 241 277 4,400 -2,160 Descending FlightAware ADS-B
12:27AM 29.9131 -95.0929 39° Northeast 237 273 4,000 -2,220 Descending FlightAware ADS-B
12:28AM 29.9241 -95.0870 18° North 234 269 3,600 -2,340 Descending FlightAware ADS-B
12:28AM 29.9316 -95.0854 North 232 267 3,300 -2,220 Descending FlightAware ADS-B
12:28AM 29.9356 -95.0850 North 231 266 3,200 -2,280 Descending FlightAware ADS-B
12:28AM 29.9403 -95.0851 359° North 229 264 3,000 -2,580 Descending FlightAware ADS-B
12:28AM 29.9434 -95.0856 352° North 226 260 2,900 -1,740 Descending FlightAware ADS-B
12:28AM 29.9471 -95.0867 346° North 223 257 2,800 -1,740 Descending FlightAware ADS-B
12:28AM 29.9503 -95.0882 338° Northwest 221 254 2,700 -2,220 Descending FlightAware ADS-B
12:28AM 29.9568 -95.0932 322° Northwest 216 249 2,400 -2,040 Descending FlightAware ADS-B
12:28AM 29.9598 -95.0963 318° Northwest 214 246 2,300 -780 Descending FlightAware ADS-B
12:28AM 29.9624 -95.0994 314° West 211 243 2,300 -480 Level FlightAware ADS-B
12:29AM 29.9677 -95.1073 305° West 209 241 2,200 -1,020 Descending FlightAware ADS-B
12:29AM 29.9693 -95.1104 301° West 208 239 2,100 -600 Descending FlightAware ADS-B
12:29AM 29.9721 -95.1176 294° West 205 236 2,100  Level FlightAware ADS-B
12:29AM 29.9742 -95.1262 283° West 193 222 2,100  Level FlightAware ADS-B
12:29AM 29.9749 -95.1295 284° West 189 217 2,100  Level FlightAware ADS-B
12:29AM 29.9771 -95.1460 278° West 180 207 2,100  Level FlightAware ADS-B
12:29AM 29.9774 -95.1520 273° West 178 205 2,100  Level FlightAware ADS-B
12:29AM 29.9775 -95.1598 271° West 177 204 2,100  Level FlightAware ADS-B
12:30AM 29.9775 -95.1884 270° West 176 203 2,100 -420 Level FlightAware ADS-B
12:30AM 29.9776 -95.2039 270° West 174 200 1,800 -1,080 Descending FlightAware ADS-B
12:30AM 29.9776 -95.2150 270° West 173 199 1,600 -900 Descending FlightAware ADS-B
12:31AM 29.9776 -95.2285 270° West 162 186 1,400 -840 Descending FlightAware ADS-B
12:31AM 29.9776 -95.2407 270° West 146 168 1,200 -840 Descending FlightAware ADS-B
12:31AM 29.9776 -95.2522 270° West 143 165 1,000 -840 Descending FlightAware ADS-B
12:31AM 29.9776 -95.2573 270° West 143 165 900 -840 Descending FlightAware ADS-B
12:32AM 29.9777 -95.2690 271° West 145 167 700 -780 Descending FlightAware ADS-B
12:32AM 29.9777 -95.2759 270° West 146 168 600 -720 Descending FlightAware ADS-B
12:32AM 29.9777 -95.2823 270° West 147 169 500 -540 Descending FlightAware ADS-B
12:32AM 29.9776 -95.2940 269° West 145 167 400 -720 Descending FlightAware ADS-B
12:32AM 29.9776 -95.3012 270° West 144 166 200 -180 Descending FlightAware ADS-B
12:33AM 29.9792 -95.3206 270° West 163 188 300 180 Climbing Houston Center